Veteran, Canada
Current Conditions -  °F | °C
As of 2:00 AM on Thursday 18 Dec 2014 (Local Time) from CYKY Reporting Station
Moderate Fog Moderate Fog  
Wind Chill:   Ceiling: 200
Heat Index: 16°   Visibility: 0.37mi
Dew Point: 14°   Wind: 5mph
Humidity: 93%   Direction: 220°SW
Pressure: 29.86"   Gusts: NA
Location:  52°N, 111.12°W
Report Text: CYKY 180900Z 22004KT 3/8SM FZFG VV002 M09/M10 A2986 RMK FG8 SLP153
Loading
Personal Weather Stations






























Interactive Weather Map New forecast layout! Learn more

10-Day Weather Forecast

Advertisements
Track Severe Weather on mobile